createdAt,value
2018-02-05T00:01:28.398Z,80.16
2018-02-05T00:03:57.629Z,79.46
2018-02-05T00:06:26.726Z,79.73
2018-02-05T00:08:56.819Z,79.78
2018-02-05T00:11:25.919Z,79.78
2018-02-05T00:13:55.009Z,79.18
2018-02-05T00:16:24.120Z,79.55
2018-02-05T00:18:53.220Z,79.91
2018-02-05T00:21:22.354Z,80.05
2018-02-05T00:23:52.204Z,80.05
2018-02-05T00:26:21.317Z,80.35
2018-02-05T00:28:51.926Z,80.50
2018-02-05T00:31:21.009Z,80.95
2018-02-05T00:33:50.138Z,80.85
2018-02-05T00:36:19.409Z,80.90
2018-02-05T00:38:48.510Z,81.17
2018-02-05T00:41:17.670Z,81.32
2018-02-05T00:43:46.770Z,81.27
2018-02-05T00:46:15.894Z,81.69
2018-02-05T00:48:45.012Z,81.41
2018-02-05T00:51:14.125Z,81.38
2018-02-05T00:53:43.249Z,81.23
2018-02-05T00:56:13.148Z,81.27
2018-02-05T00:58:43.762Z,81.30
2018-02-05T01:01:12.862Z,81.53
2018-02-05T01:03:41.958Z,81.65
2018-02-05T01:06:11.054Z,81.54
2018-02-05T01:08:41.049Z,81.86
2018-02-05T01:11:10.158Z,81.44
2018-02-05T01:13:39.240Z,81.54
2018-02-05T01:16:08.351Z,81.65
2018-02-05T01:18:37.454Z,81.44
2018-02-05T01:21:06.550Z,81.72
2018-02-05T01:23:35.666Z,81.56
2018-02-05T01:26:05.545Z,81.25
2018-02-05T01:28:34.658Z,80.36
2018-02-05T01:31:03.767Z,79.34
2018-02-05T01:33:32.868Z,79.50
2018-02-05T01:36:02.747Z,79.26
2018-02-05T01:38:32.585Z,79.68
2018-02-05T01:41:02.492Z,79.92
2018-02-05T01:43:31.592Z,80.14
2018-02-05T01:46:00.704Z,80.44
2018-02-05T01:48:30.554Z,80.73
2018-02-05T01:50:59.667Z,79.95
2018-02-05T01:53:28.763Z,79.26
2018-02-05T01:55:57.878Z,78.88
2018-02-05T01:58:26.966Z,79.27
2018-02-05T02:00:56.057Z,79.16
2018-02-05T02:03:25.167Z,78.59
2018-02-05T02:05:54.310Z,78.44
2018-02-05T02:08:24.161Z,78.38
2018-02-05T02:10:53.252Z,78.14
2018-02-05T02:13:22.346Z,76.72
2018-02-05T02:15:51.437Z,76.40
2018-02-05T02:18:20.547Z,76.08
2018-02-05T02:20:49.662Z,75.91
2018-02-05T02:23:18.771Z,75.88
2018-02-05T02:25:48.617Z,75.84
2018-02-05T02:28:17.717Z,76.04
2018-02-05T02:30:46.818Z,75.93
2018-02-05T02:33:15.916Z,75.56
2018-02-05T02:35:45.029Z,75.83
2018-02-05T02:38:14.135Z,75.82
2018-02-05T02:40:43.833Z,75.51
2018-02-05T02:43:12.940Z,75.14
2018-02-05T02:45:42.071Z,74.18
2018-02-05T02:48:11.913Z,74.40
2018-02-05T02:50:41.024Z,74.41
2018-02-05T02:53:10.128Z,74.32
2018-02-05T02:55:39.214Z,74.32
2018-02-05T02:58:09.101Z,73.87
2018-02-05T03:00:38.961Z,73.71
2018-02-05T03:03:08.069Z,73.93
2018-02-05T03:05:37.186Z,73.74
2018-02-05T03:08:06.275Z,73.53
2018-02-05T03:10:35.391Z,73.57
2018-02-05T03:13:05.261Z,73.59
2018-02-05T03:15:34.393Z,73.60
2018-02-05T03:18:04.247Z,74.32
2018-02-05T03:20:33.334Z,73.94
2018-02-05T03:23:03.445Z,73.65
2018-02-05T03:25:32.554Z,73.57
2018-02-05T03:28:01.676Z,73.21
2018-02-05T03:30:30.802Z,72.80
2018-02-05T03:32:59.902Z,72.89
2018-02-05T03:35:29.792Z,72.59
2018-02-05T03:37:58.926Z,72.51
2018-02-05T03:40:28.780Z,73.00
2018-02-05T03:42:57.894Z,73.41
2018-02-05T03:45:27.007Z,72.87
2018-02-05T03:47:56.097Z,73.22
2018-02-05T03:50:28.047Z,73.05
2018-02-05T03:52:57.293Z,73.30
2018-02-05T03:55:27.141Z,72.62
2018-02-05T03:57:56.252Z,72.83
2018-02-05T04:00:25.350Z,72.97
2018-02-05T04:02:54.457Z,72.64
2018-02-05T04:05:23.569Z,72.96
2018-02-05T04:07:53.434Z,73.34
2018-02-05T04:10:22.552Z,72.42
2018-02-05T04:12:51.654Z,72.83
2018-02-05T04:15:22.254Z,72.60
2018-02-05T04:17:51.548Z,72.12
2018-02-05T04:20:21.016Z,72.20
2018-02-05T04:22:50.114Z,72.28
2018-02-05T04:25:19.978Z,72.40
2018-02-05T04:27:49.099Z,72.11
2018-02-05T04:30:18.178Z,72.28
2018-02-05T04:32:47.302Z,72.75
2018-02-05T04:35:16.408Z,72.35
2018-02-05T04:37:45.514Z,72.43
2018-02-05T04:40:15.374Z,72.77
2018-02-05T04:42:44.487Z,72.03
2018-02-05T04:45:14.333Z,72.16
2018-02-05T04:47:44.221Z,72.25
2018-02-05T04:50:13.326Z,72.40
2018-02-05T04:52:42.480Z,72.03
2018-02-05T04:55:11.553Z,72.38
2018-02-05T04:57:40.685Z,71.92
2018-02-05T05:00:10.544Z,71.86
2018-02-05T05:02:40.406Z,72.05
2018-02-05T05:05:09.517Z,72.15
2018-02-05T05:07:38.619Z,72.62
2018-02-05T05:10:07.744Z,72.56
2018-02-05T05:12:36.833Z,72.72
2018-02-05T05:15:06.702Z,73.01
2018-02-05T05:17:35.809Z,72.68
2018-02-05T05:20:04.903Z,72.29
2018-02-05T05:22:34.002Z,72.33
2018-02-05T05:25:03.100Z,72.17
2018-02-05T05:27:32.229Z,72.30
2018-02-05T05:30:02.089Z,72.43
2018-02-05T05:32:31.290Z,71.93
2018-02-05T05:35:00.948Z,71.70
2018-02-05T05:37:30.893Z,71.58
2018-02-05T05:40:00.785Z,71.85
2018-02-05T05:42:29.888Z,72.06
2018-02-05T05:44:59.777Z,71.93
2018-02-05T05:47:30.285Z,71.58
2018-02-05T05:50:00.165Z,71.75
2018-02-05T05:52:29.260Z,72.26
2018-02-05T05:54:58.395Z,72.16
2018-02-05T05:57:29.029Z,71.79
2018-02-05T05:59:58.125Z,71.72
2018-02-05T06:02:27.225Z,71.64
2018-02-05T06:04:56.345Z,72.08
2018-02-05T06:07:26.204Z,71.75
2018-02-05T06:09:56.302Z,71.77
2018-02-05T06:12:25.929Z,71.41
2018-02-05T06:14:55.027Z,71.20
2018-02-05T06:17:24.148Z,71.05
2018-02-05T06:19:53.243Z,71.57
2018-02-05T06:22:22.363Z,71.86
2018-02-05T06:24:51.443Z,71.63
2018-02-05T06:27:20.566Z,71.28
2018-02-05T06:29:49.658Z,71.38
2018-02-05T06:32:19.532Z,71.21
2018-02-05T06:34:49.401Z,71.33
2018-02-05T06:37:19.297Z,71.98
2018-02-05T06:39:48.415Z,72.02
2018-02-05T06:42:18.302Z,71.58
2018-02-05T06:44:47.403Z,71.56
2018-02-05T06:47:16.497Z,71.92
2018-02-05T06:49:45.614Z,71.19
2018-02-05T07:05:47.785Z,70.79
2018-02-05T07:08:17.856Z,70.67
2018-02-05T07:10:46.981Z,71.09
2018-02-05T07:13:17.830Z,70.86
2018-02-05T07:15:51.006Z,70.86
2018-02-05T07:18:20.091Z,70.80
2018-02-05T07:20:49.185Z,70.81
2018-02-05T07:23:18.302Z,71.09
2018-02-05T07:25:48.171Z,71.33
2018-02-05T07:28:18.512Z,70.90
2018-02-05T07:30:47.581Z,70.93
2018-02-05T07:33:19.344Z,70.92
2018-02-05T07:35:48.424Z,70.77
2018-02-05T07:38:17.541Z,70.46
2018-02-05T07:40:46.638Z,70.36
2018-02-05T07:43:15.733Z,70.13
2018-02-05T07:45:44.874Z,70.07
2018-02-05T07:48:14.718Z,70.55
2018-02-05T07:50:44.605Z,70.38
2018-02-05T07:53:14.477Z,70.58
2018-02-05T07:55:43.574Z,70.26
2018-02-05T07:58:12.700Z,70.36
2018-02-05T08:00:42.551Z,70.30
2018-02-05T08:03:11.655Z,70.30
2018-02-05T08:05:40.757Z,70.49
2018-02-05T08:08:09.873Z,70.38
2018-02-05T08:10:39.726Z,70.14
2018-02-05T08:13:09.597Z,70.26
2018-02-05T08:15:38.710Z,69.97
2018-02-05T08:18:07.815Z,70.16
2018-02-05T08:20:36.929Z,70.10
2018-02-05T08:23:06.781Z,69.95
2018-02-05T08:25:35.906Z,70.10
2018-02-05T08:28:05.013Z,69.93
2018-02-05T08:30:34.125Z,70.00
2018-02-05T08:33:03.976Z,69.76
2018-02-05T08:35:33.093Z,69.75
2018-02-05T08:38:02.956Z,69.72
2018-02-05T08:40:32.808Z,69.87
2018-02-05T08:43:01.905Z,69.52
2018-02-05T08:45:31.011Z,69.88
2018-02-05T08:48:00.113Z,69.49
2018-02-05T08:50:29.221Z,69.28
2018-02-05T08:52:58.363Z,69.42
2018-02-05T08:55:27.462Z,69.52
2018-02-05T08:57:56.561Z,69.13
2018-02-05T09:00:25.694Z,69.38
2018-02-05T09:02:54.792Z,68.99
2018-02-05T09:05:23.899Z,69.04
2018-02-05T09:07:53.010Z,68.69
2018-02-05T09:10:22.137Z,68.64
2018-02-05T09:12:51.327Z,68.52
2018-02-05T09:15:20.411Z,68.78
2018-02-05T09:17:50.273Z,69.12
2018-02-05T09:20:19.371Z,68.84
2018-02-05T09:22:48.485Z,69.07
2018-02-05T09:25:17.627Z,68.89
2018-02-05T09:27:46.686Z,69.22
2018-02-05T09:30:15.764Z,68.42
2018-02-05T09:32:44.877Z,68.27
2018-02-05T09:35:14.745Z,68.43
2018-02-05T09:37:44.425Z,68.06
2018-02-05T09:40:13.553Z,68.15
2018-02-05T09:42:42.641Z,67.86
2018-02-05T09:45:11.764Z,67.69
2018-02-05T09:47:40.846Z,67.39
2018-02-05T09:50:09.951Z,67.64
2018-02-05T09:52:39.053Z,67.03
2018-02-05T09:55:08.139Z,66.67
2018-02-05T09:57:37.276Z,67.40
2018-02-05T10:00:06.371Z,66.80
2018-02-05T10:02:35.473Z,67.04
2018-02-05T10:05:05.355Z,67.01
2018-02-05T10:07:34.465Z,67.08
2018-02-05T10:10:04.339Z,67.38
2018-02-05T10:12:33.457Z,66.56
2018-02-05T10:15:03.274Z,66.28
2018-02-05T10:17:32.382Z,66.09
2018-02-05T10:20:01.489Z,66.06
2018-02-05T10:22:30.629Z,65.86
2018-02-05T10:24:59.698Z,64.94
2018-02-05T10:27:29.666Z,64.68
2018-02-05T10:29:58.780Z,64.72
2018-02-05T10:32:27.899Z,65.06
2018-02-05T10:34:57.010Z,64.88
2018-02-05T10:37:26.901Z,65.11
2018-02-05T10:39:56.025Z,64.25
2018-02-05T10:42:25.878Z,64.26
2018-02-05T10:44:54.962Z,65.42
2018-02-05T10:47:24.953Z,63.93
2018-02-05T10:49:54.052Z,64.50
2018-02-05T10:52:23.171Z,64.91
2018-02-05T10:54:53.039Z,64.75
2018-02-05T10:57:22.155Z,64.27
2018-02-05T10:59:51.258Z,63.66
2018-02-05T11:02:20.355Z,64.04
2018-02-05T11:04:49.473Z,64.08
2018-02-05T11:07:18.561Z,63.87
2018-02-05T11:09:47.678Z,64.29
2018-02-05T11:12:17.603Z,64.48
2018-02-05T11:14:46.739Z,64.43
2018-02-05T11:17:16.598Z,63.11
2018-02-05T11:19:45.726Z,63.67
2018-02-05T11:22:15.207Z,63.54
2018-02-05T11:24:44.307Z,64.09
2018-02-05T11:27:14.964Z,62.95
2018-02-05T11:29:45.218Z,63.51
2018-02-05T11:32:15.801Z,63.36
2018-02-05T11:34:44.899Z,63.30
2018-02-05T11:37:14.022Z,62.31
2018-02-05T11:39:43.869Z,62.31
2018-02-05T11:42:12.979Z,62.19
2018-02-05T11:44:42.114Z,62.71
2018-02-05T11:47:12.723Z,61.99
2018-02-05T11:49:42.183Z,62.40
2018-02-05T11:52:11.308Z,62.87
2018-02-05T11:54:41.179Z,62.42
2018-02-05T11:57:11.074Z,62.42
2018-02-05T11:59:40.195Z,62.01
2018-02-05T12:02:09.302Z,61.79
2018-02-05T12:04:38.394Z,61.83
2018-02-05T12:07:07.505Z,61.82
2018-02-05T12:09:36.607Z,61.94
2018-02-05T12:12:05.760Z,62.27
2018-02-05T12:14:35.605Z,62.00
2018-02-05T12:17:04.753Z,62.41
2018-02-05T12:19:33.825Z,61.38
2018-02-05T12:22:04.566Z,62.16
2018-02-05T12:24:33.691Z,61.92
2018-02-05T12:27:03.575Z,62.41
2018-02-05T12:29:32.661Z,62.16
2018-02-05T12:32:01.771Z,62.06
2018-02-05T12:34:30.892Z,61.47
2018-02-05T12:37:01.554Z,60.91
2018-02-05T12:39:30.666Z,61.56
2018-02-05T12:42:00.662Z,61.47
2018-02-05T12:44:30.507Z,61.32
2018-02-05T12:47:00.278Z,60.75
2018-02-05T12:49:30.166Z,60.69
2018-02-05T12:51:59.278Z,60.63
2018-02-05T12:54:28.396Z,60.33
2018-02-05T12:56:58.293Z,60.74
2018-02-05T12:59:27.370Z,60.93
2018-02-05T13:01:57.325Z,60.64
2018-02-05T13:07:34.153Z,60.37
2018-02-05T13:10:03.281Z,59.79
2018-02-05T13:12:33.334Z,60.44
2018-02-05T13:15:03.200Z,59.54
2018-02-05T13:17:32.313Z,59.75
2018-02-05T13:20:01.431Z,59.83
2018-02-05T13:22:30.529Z,59.85
2018-02-05T13:25:00.389Z,59.52
2018-02-05T13:27:29.572Z,59.79
2018-02-05T13:29:58.667Z,59.58
2018-02-05T13:32:27.779Z,59.70
2018-02-05T13:34:56.919Z,60.11
2018-02-05T13:37:26.023Z,58.64
2018-02-05T13:39:56.680Z,58.71
2018-02-05T13:42:25.836Z,58.91
2018-02-05T13:44:54.951Z,58.71
2018-02-05T13:47:24.811Z,58.78
2018-02-05T13:49:53.961Z,58.74
2018-02-05T13:52:24.063Z,58.70
2018-02-05T13:54:58.760Z,58.45
2018-02-05T13:57:31.479Z,58.51
2018-02-05T14:00:00.584Z,58.31
2018-02-05T14:02:30.468Z,58.54
2018-02-05T14:04:59.607Z,58.22
2018-02-05T14:07:29.487Z,57.64
2018-02-05T14:09:58.652Z,57.36
2018-02-05T14:12:28.783Z,57.27
2018-02-05T14:14:57.914Z,57.77
2018-02-05T14:17:27.973Z,56.68
2018-02-05T14:19:57.091Z,57.59
2018-02-05T14:22:27.026Z,57.22
2018-02-05T14:24:56.124Z,57.27
2018-02-05T14:27:25.265Z,56.51
2018-02-05T14:29:54.377Z,56.39
2018-02-05T14:32:23.486Z,55.60
2018-02-05T14:34:53.345Z,55.48
2018-02-05T14:37:25.232Z,55.68
2018-02-05T14:39:54.333Z,55.79
2018-02-05T14:42:23.550Z,55.30
2018-02-05T14:44:52.679Z,55.20
2018-02-05T14:47:21.815Z,54.64
2018-02-05T14:49:51.679Z,54.81
2018-02-05T14:52:21.574Z,54.21
2018-02-05T14:54:50.660Z,53.91
2018-02-05T14:57:19.777Z,53.88
2018-02-05T14:59:48.904Z,52.79
2018-02-05T15:02:18.006Z,49.72
2018-02-05T15:04:47.857Z,47.31
2018-02-05T15:07:17.814Z,47.20
2018-02-05T15:09:46.938Z,48.49
2018-02-05T15:12:16.795Z,49.79
2018-02-05T15:14:45.938Z,50.76
2018-02-05T15:17:15.049Z,52.23
2018-02-05T15:19:44.952Z,52.96
2018-02-05T15:22:14.817Z,53.44
2018-02-05T15:24:43.935Z,54.01
2018-02-05T15:27:13.030Z,54.56
2018-02-05T15:29:42.147Z,55.05
2018-02-05T15:32:12.268Z,55.17
2018-02-05T15:34:42.411Z,55.58
2018-02-05T15:37:13.344Z,55.77
2018-02-05T15:39:43.256Z,56.17
2018-02-05T15:42:13.405Z,56.92
2018-02-05T15:44:43.456Z,57.54
2018-02-05T15:47:12.553Z,57.37
2018-02-05T15:49:41.682Z,57.94
2018-02-05T15:52:10.782Z,58.01
2018-02-05T15:54:40.677Z,57.77
2018-02-05T15:57:09.774Z,58.23
2018-02-05T15:59:38.866Z,58.38
2018-02-05T16:02:07.987Z,58.26
2018-02-05T16:04:37.879Z,58.53
2018-02-05T16:07:07.013Z,59.00
2018-02-05T16:09:36.156Z,59.18
2018-02-05T16:12:05.240Z,59.20
2018-02-05T16:14:34.351Z,59.54
2018-02-05T16:17:03.531Z,59.50
2018-02-05T16:19:32.662Z,60.20
2018-02-05T16:22:01.790Z,60.34
2018-02-05T16:24:30.907Z,60.43
2018-02-05T16:27:00.040Z,61.07
2018-02-05T16:29:29.152Z,61.04
2018-02-05T16:31:59.076Z,61.41
2018-02-05T16:34:28.265Z,61.55
2018-02-05T16:36:57.387Z,61.68
2018-02-05T16:39:26.506Z,61.80
2018-02-05T16:41:55.646Z,62.24
2018-02-05T16:44:24.745Z,62.24
2018-02-05T16:46:53.887Z,62.24
2018-02-05T16:49:22.981Z,62.55
2018-02-05T16:51:52.096Z,62.64
2018-02-05T16:54:21.202Z,62.89
2018-02-05T16:56:50.338Z,62.92
2018-02-05T16:59:20.209Z,63.09
2018-02-05T17:01:49.332Z,62.85
2018-02-05T17:04:18.475Z,63.31
2018-02-05T17:06:47.591Z,63.27
2018-02-05T17:09:16.728Z,63.21
2018-02-05T17:11:45.835Z,63.55
2018-02-05T17:14:15.732Z,63.64
2018-02-05T17:16:45.710Z,63.80
2018-02-05T17:19:15.609Z,63.80
2018-02-05T17:21:45.207Z,63.55
2018-02-05T17:24:15.957Z,63.63
2018-02-05T17:26:45.050Z,63.49
2018-02-05T17:29:14.179Z,63.59
2018-02-05T17:31:43.309Z,63.71
2018-02-05T17:34:13.180Z,63.83
2018-02-05T17:36:43.106Z,63.87
2018-02-05T17:39:12.234Z,64.12
2018-02-05T17:41:41.334Z,64.33
2018-02-05T17:44:10.445Z,64.23
2018-02-05T17:46:39.947Z,64.41
2018-02-05T17:49:09.832Z,64.37
2018-02-05T17:51:38.949Z,64.30
2018-02-05T17:54:11.103Z,64.46
2018-02-05T17:56:40.226Z,64.77
2018-02-05T17:59:10.190Z,64.77
2018-02-05T18:01:40.930Z,64.78
2018-02-05T18:04:10.500Z,64.59
2018-02-05T18:06:39.620Z,64.75
2018-02-05T18:09:08.732Z,64.82
2018-02-05T18:11:37.847Z,64.82
2018-02-05T18:14:06.944Z,64.82
2018-02-05T18:16:36.838Z,64.83
2018-02-05T18:19:05.939Z,64.77
2018-02-05T18:21:35.129Z,64.83
2018-02-05T18:24:04.267Z,64.82
2018-02-05T18:26:34.139Z,64.85
2018-02-05T18:29:03.270Z,64.81
2018-02-05T18:31:33.405Z,64.69
2018-02-05T18:34:02.573Z,64.71
2018-02-05T18:36:31.709Z,64.71
2018-02-05T18:39:00.800Z,64.50
2018-02-05T18:41:29.967Z,64.54
2018-02-05T18:43:59.088Z,64.56
2018-02-05T18:46:29.866Z,64.42
2018-02-05T18:48:59.002Z,64.10
2018-02-05T18:51:30.339Z,64.10
2018-02-05T18:54:03.957Z,64.16
2018-02-05T18:56:44.860Z,64.21
2018-02-05T18:59:14.015Z,64.16
2018-02-05T19:01:43.139Z,64.08
2018-02-05T19:04:13.036Z,64.07
2018-02-05T19:06:43.869Z,63.99
2018-02-05T19:09:13.759Z,63.94
2018-02-05T19:11:42.908Z,63.85
2018-02-05T19:14:12.846Z,64.30
2018-02-05T19:16:41.990Z,64.13
2018-02-05T19:19:11.122Z,63.76
2018-02-05T19:21:40.240Z,63.79
2018-02-05T19:24:09.354Z,63.76
2018-02-05T19:26:38.472Z,63.63
2018-02-05T19:29:07.613Z,63.26
2018-02-05T19:31:37.320Z,62.91
2018-02-05T19:34:06.424Z,63.00
2018-02-05T19:36:35.639Z,63.11
2018-02-05T19:39:04.774Z,62.85
2018-02-05T19:41:35.449Z,62.84
2018-02-05T19:44:05.216Z,62.98
2018-02-05T19:46:35.725Z,63.04
2018-02-05T19:49:04.847Z,63.22
2018-02-05T19:51:34.774Z,62.88
2018-02-05T19:54:04.668Z,62.90
2018-02-05T19:56:33.807Z,62.73
2018-02-05T19:59:02.926Z,62.92
2018-02-05T20:01:32.096Z,62.58
2018-02-05T20:04:01.180Z,63.11
2018-02-05T20:06:30.309Z,62.98
2018-02-05T20:08:59.409Z,63.14
2018-02-05T20:11:28.542Z,62.91
2018-02-05T20:13:57.698Z,62.60
2018-02-05T20:16:26.847Z,62.38
2018-02-05T20:18:56.008Z,62.39
2018-02-05T20:21:25.138Z,62.57
2018-02-05T20:23:55.075Z,62.29
2018-02-05T20:26:24.969Z,62.08
2018-02-05T20:28:54.092Z,62.32
2018-02-05T20:31:23.192Z,62.38
2018-02-05T20:33:52.328Z,62.04
2018-02-05T20:36:21.466Z,62.68
2018-02-05T20:38:51.352Z,62.36
2018-02-05T20:41:20.559Z,61.98
2018-02-05T20:43:49.712Z,61.60
2018-02-05T20:46:18.837Z,61.85
2018-02-05T20:48:47.958Z,61.76
2018-02-05T20:51:18.586Z,61.70
2018-02-05T20:53:47.711Z,61.63
2018-02-05T20:56:17.565Z,61.33
2018-02-05T20:58:46.698Z,61.43
2018-02-05T21:01:16.579Z,61.33
2018-02-05T21:03:45.703Z,61.24
2018-02-05T21:06:15.579Z,61.24
2018-02-05T21:08:44.712Z,61.29
2018-02-05T21:11:14.629Z,62.14
2018-02-05T21:13:43.759Z,61.50
2018-02-05T21:16:13.642Z,61.36
2018-02-05T21:18:43.541Z,61.59
2018-02-05T21:21:12.665Z,61.69
2018-02-05T21:23:42.551Z,61.30
2018-02-05T21:26:11.687Z,61.07
2018-02-05T21:28:40.814Z,61.62
2018-02-05T21:31:10.698Z,61.97
2018-02-05T21:33:40.594Z,61.40
2018-02-05T21:36:10.488Z,61.09
2018-02-05T21:38:39.590Z,61.10
2018-02-05T21:41:08.758Z,60.74
2018-02-05T21:43:38.014Z,60.93
2018-02-05T21:46:07.919Z,61.23
2018-02-05T21:48:37.017Z,60.68
2018-02-05T21:51:06.927Z,61.17
2018-02-05T21:53:36.819Z,60.91
2018-02-05T21:56:05.917Z,61.03
2018-02-05T21:58:35.080Z,60.67
2018-02-05T22:01:04.208Z,60.82
2018-02-05T22:03:34.672Z,61.08
2018-02-05T22:06:03.803Z,60.90
2018-02-05T22:08:32.930Z,60.58
2018-02-05T22:11:02.867Z,60.61
2018-02-05T22:13:32.734Z,61.34
2018-02-05T22:16:02.690Z,60.58
2018-02-05T22:18:31.819Z,60.60
2018-02-05T22:21:00.911Z,60.62
2018-02-05T22:23:30.040Z,60.77
2018-02-05T22:25:59.906Z,60.62
2018-02-05T22:28:29.779Z,60.88
2018-02-05T22:30:58.890Z,60.77
2018-02-05T22:33:28.017Z,60.85
2018-02-05T22:35:57.924Z,60.90
2018-02-05T22:38:27.794Z,60.55
2018-02-05T22:40:56.935Z,61.01
2018-02-05T22:43:26.790Z,61.06
2018-02-05T22:45:55.933Z,60.82
2018-02-05T22:48:25.033Z,60.65
2018-02-05T22:50:54.926Z,60.70
2018-02-05T22:53:24.033Z,60.79
2018-02-05T22:55:53.158Z,61.53
2018-02-05T22:58:22.259Z,60.51
2018-02-05T23:00:51.365Z,60.59
2018-02-05T23:03:20.475Z,61.78
2018-02-05T23:05:49.609Z,60.81
2018-02-05T23:08:18.724Z,60.57
2018-02-05T23:10:48.584Z,60.47
2018-02-05T23:13:17.701Z,60.64
2018-02-05T23:15:46.809Z,61.04
2018-02-05T23:18:15.944Z,60.97
2018-02-05T23:20:45.797Z,60.51
2018-02-05T23:23:14.909Z,60.52
2018-02-05T23:25:44.033Z,60.23
2018-02-05T23:28:13.126Z,60.68
2018-02-05T23:30:43.006Z,60.45
2018-02-05T23:33:12.137Z,60.65
2018-02-05T23:35:42.019Z,60.82
2018-02-05T23:38:11.118Z,60.39
2018-02-05T23:40:40.227Z,60.83
2018-02-05T23:43:09.328Z,60.82
2018-02-05T23:45:38.445Z,60.89
2018-02-05T23:48:09.100Z,60.74
2018-02-05T23:50:39.941Z,60.50
2018-02-05T23:53:09.829Z,60.38
2018-02-05T23:55:39.718Z,61.34
2018-02-05T23:58:08.857Z,61.36
